sensor_id;sensor_type;location;lat;lon;timestamp;temperature;humidity
33881;DHT22;20172;47.530;10.256;2022-10-16T00:02:19;13.60;99.90
33881;DHT22;20172;47.530;10.256;2022-10-16T00:04:44;13.70;99.90
33881;DHT22;20172;47.530;10.256;2022-10-16T00:07:10;13.80;99.90
33881;DHT22;20172;47.530;10.256;2022-10-16T00:09:36;13.80;99.90
33881;DHT22;20172;47.530;10.256;2022-10-16T00:12:01;13.80;99.90
33881;DHT22;20172;47.530;10.256;2022-10-16T00:14:29;13.80;99.90
33881;DHT22;20172;47.530;10.256;2022-10-16T00:16:54;13.70;99.90
33881;DHT22;20172;47.530;10.256;2022-10-16T00:19:20;13.60;99.90
33881;DHT22;20172;47.530;10.256;2022-10-16T00:21:45;13.60;99.90
33881;DHT22;20172;47.530;10.256;2022-10-16T00:24:11;13.50;99.90
33881;DHT22;20172;47.530;10.256;2022-10-16T00:26:37;13.50;99.90
33881;DHT22;20172;47.530;10.256;2022-10-16T00:29:03;13.40;99.90
33881;DHT22;20172;47.530;10.256;2022-10-16T00:31:29;13.30;99.90
33881;DHT22;20172;47.530;10.256;2022-10-16T00:33:54;13.40;99.90
33881;DHT22;20172;47.530;10.256;2022-10-16T00:36:21;13.40;99.90
33881;DHT22;20172;47.530;10.256;2022-10-16T00:38:47;13.30;99.90
33881;DHT22;20172;47.530;10.256;2022-10-16T00:41:15;13.30;99.90
33881;DHT22;20172;47.530;10.256;2022-10-16T00:43:49;13.00;99.90
33881;DHT22;20172;47.530;10.256;2022-10-16T00:48:55;13.40;99.90
33881;DHT22;20172;47.530;10.256;2022-10-16T00:51:23;13.40;99.90
33881;DHT22;20172;47.530;10.256;2022-10-16T00:53:49;13.40;99.90
33881;DHT22;20172;47.530;10.256;2022-10-16T00:56:15;13.40;99.90
33881;DHT22;20172;47.530;10.256;2022-10-16T00:58:41;13.40;99.90
33881;DHT22;20172;47.530;10.256;2022-10-16T01:01:06;13.40;99.90
33881;DHT22;20172;47.530;10.256;2022-10-16T01:03:33;13.40;99.90
33881;DHT22;20172;47.530;10.256;2022-10-16T01:08:31;12.90;99.90
33881;DHT22;20172;47.530;10.256;2022-10-16T01:10:57;12.90;99.90
33881;DHT22;20172;47.530;10.256;2022-10-16T01:13:31;13.10;99.90
33881;DHT22;20172;47.530;10.256;2022-10-16T01:23:26;13.40;99.90
33881;DHT22;20172;47.530;10.256;2022-10-16T01:28:28;13.60;99.90
33881;DHT22;20172;47.530;10.256;2022-10-16T01:30:58;13.60;99.90
33881;DHT22;20172;47.530;10.256;2022-10-16T01:33:24;13.70;99.90
33881;DHT22;20172;47.530;10.256;2022-10-16T01:35:54;13.60;99.90
33881;DHT22;20172;47.530;10.256;2022-10-16T01:38:26;13.60;99.90
33881;DHT22;20172;47.530;10.256;2022-10-16T01:40:56;13.60;99.90
33881;DHT22;20172;47.530;10.256;2022-10-16T01:43:25;13.40;99.90
33881;DHT22;20172;47.530;10.256;2022-10-16T01:45:52;13.20;99.90
33881;DHT22;20172;47.530;10.256;2022-10-16T01:48:18;13.40;99.90
33881;DHT22;20172;47.530;10.256;2022-10-16T01:50:47;13.20;99.90
33881;DHT22;20172;47.530;10.256;2022-10-16T01:53:13;13.30;99.90
33881;DHT22;20172;47.530;10.256;2022-10-16T01:55:41;13.50;99.90
33881;DHT22;20172;47.530;10.256;2022-10-16T01:58:10;13.70;99.90
33881;DHT22;20172;47.530;10.256;2022-10-16T02:00:37;13.90;99.90
33881;DHT22;20172;47.530;10.256;2022-10-16T02:03:03;13.90;99.90
33881;DHT22;20172;47.530;10.256;2022-10-16T02:06:12;13.90;99.90
33881;DHT22;20172;47.530;10.256;2022-10-16T02:08:18;13.90;99.90
33881;DHT22;20172;47.530;10.256;2022-10-16T02:10:44;14.00;99.90
33881;DHT22;20172;47.530;10.256;2022-10-16T02:13:13;14.00;99.90
33881;DHT22;20172;47.530;10.256;2022-10-16T02:15:41;13.90;99.90
33881;DHT22;20172;47.530;10.256;2022-10-16T02:18:07;13.90;99.90
33881;DHT22;20172;47.530;10.256;2022-10-16T02:20:36;13.90;99.90
33881;DHT22;20172;47.530;10.256;2022-10-16T02:23:03;13.90;99.90
33881;DHT22;20172;47.530;10.256;2022-10-16T02:25:36;13.90;99.90
33881;DHT22;20172;47.530;10.256;2022-10-16T02:30:42;13.80;99.90
33881;DHT22;20172;47.530;10.256;2022-10-16T02:33:09;13.60;99.90
33881;DHT22;20172;47.530;10.256;2022-10-16T02:35:35;13.80;99.90
33881;DHT22;20172;47.530;10.256;2022-10-16T02:38:01;13.90;99.90
33881;DHT22;20172;47.530;10.256;2022-10-16T02:40:27;14.00;99.90
33881;DHT22;20172;47.530;10.256;2022-10-16T02:42:53;14.10;99.90
33881;DHT22;20172;47.530;10.256;2022-10-16T02:45:19;14.10;99.90
33881;DHT22;20172;47.530;10.256;2022-10-16T02:47:45;13.90;99.90
33881;DHT22;20172;47.530;10.256;2022-10-16T02:50:10;13.90;99.90
33881;DHT22;20172;47.530;10.256;2022-10-16T02:52:39;14.00;99.90
33881;DHT22;20172;47.530;10.256;2022-10-16T02:55:04;14.10;99.90
33881;DHT22;20172;47.530;10.256;2022-10-16T02:57:30;14.10;99.90
33881;DHT22;20172;47.530;10.256;2022-10-16T02:59:57;14.10;99.90
33881;DHT22;20172;47.530;10.256;2022-10-16T03:02:22;14.20;99.90
33881;DHT22;20172;47.530;10.256;2022-10-16T03:04:48;14.20;99.90
33881;DHT22;20172;47.530;10.256;2022-10-16T03:07:13;14.20;99.90
33881;DHT22;20172;47.530;10.256;2022-10-16T03:09:39;14.30;99.90
33881;DHT22;20172;47.530;10.256;2022-10-16T03:12:04;14.40;99.90
33881;DHT22;20172;47.530;10.256;2022-10-16T03:14:30;14.50;99.90
33881;DHT22;20172;47.530;10.256;2022-10-16T03:16:55;14.60;99.90
33881;DHT22;20172;47.530;10.256;2022-10-16T03:19:21;14.60;99.90
33881;DHT22;20172;47.530;10.256;2022-10-16T03:21:46;14.60;99.90
33881;DHT22;20172;47.530;10.256;2022-10-16T03:24:12;14.70;99.90
33881;DHT22;20172;47.530;10.256;2022-10-16T03:26:37;14.60;99.90
33881;DHT22;20172;47.530;10.256;2022-10-16T03:29:03;14.40;99.90
33881;DHT22;20172;47.530;10.256;2022-10-16T03:31:29;14.40;99.90
33881;DHT22;20172;47.530;10.256;2022-10-16T03:33:54;14.40;99.90
33881;DHT22;20172;47.530;10.256;2022-10-16T03:36:20;14.10;99.90
33881;DHT22;20172;47.530;10.256;2022-10-16T03:38:49;14.00;99.90
33881;DHT22;20172;47.530;10.256;2022-10-16T03:41:15;14.10;99.90
33881;DHT22;20172;47.530;10.256;2022-10-16T03:43:40;13.90;99.90
33881;DHT22;20172;47.530;10.256;2022-10-16T03:46:07;13.50;99.90
33881;DHT22;20172;47.530;10.256;2022-10-16T03:48:33;13.30;99.90
33881;DHT22;20172;47.530;10.256;2022-10-16T03:50:58;13.40;99.90
33881;DHT22;20172;47.530;10.256;2022-10-16T03:53:24;13.60;99.90
33881;DHT22;20172;47.530;10.256;2022-10-16T03:55:52;13.20;99.90
33881;DHT22;20172;47.530;10.256;2022-10-16T03:58:18;12.90;99.90
33881;DHT22;20172;47.530;10.256;2022-10-16T04:00:45;13.00;99.90
33881;DHT22;20172;47.530;10.256;2022-10-16T04:03:11;13.10;99.90
33881;DHT22;20172;47.530;10.256;2022-10-16T04:05:37;12.90;99.90
33881;DHT22;20172;47.530;10.256;2022-10-16T04:08:02;12.80;99.90
33881;DHT22;20172;47.530;10.256;2022-10-16T04:10:28;13.00;99.90
33881;DHT22;20172;47.530;10.256;2022-10-16T04:12:53;13.10;99.90
33881;DHT22;20172;47.530;10.256;2022-10-16T04:15:22;12.90;99.90
33881;DHT22;20172;47.530;10.256;2022-10-16T04:17:47;12.70;99.90
33881;DHT22;20172;47.530;10.256;2022-10-16T04:20:13;12.70;99.90
33881;DHT22;20172;47.530;10.256;2022-10-16T04:22:39;12.60;99.90
33881;DHT22;20172;47.530;10.256;2022-10-16T04:25:04;12.60;99.90
33881;DHT22;20172;47.530;10.256;2022-10-16T04:27:30;12.80;99.90
33881;DHT22;20172;47.530;10.256;2022-10-16T04:29:59;13.00;99.90
33881;DHT22;20172;47.530;10.256;2022-10-16T04:32:25;13.20;99.90
33881;DHT22;20172;47.530;10.256;2022-10-16T04:34:51;13.40;99.90
33881;DHT22;20172;47.530;10.256;2022-10-16T04:37:16;13.60;99.90
33881;DHT22;20172;47.530;10.256;2022-10-16T04:39:42;13.70;99.90
33881;DHT22;20172;47.530;10.256;2022-10-16T04:42:07;13.90;99.90
33881;DHT22;20172;47.530;10.256;2022-10-16T04:44:33;14.00;99.90
33881;DHT22;20172;47.530;10.256;2022-10-16T04:46:58;14.00;99.90
33881;DHT22;20172;47.530;10.256;2022-10-16T04:49:24;14.00;99.90
33881;DHT22;20172;47.530;10.256;2022-10-16T04:51:49;13.90;99.90
33881;DHT22;20172;47.530;10.256;2022-10-16T04:54:15;13.90;99.90
33881;DHT22;20172;47.530;10.256;2022-10-16T04:56:40;13.90;99.90
33881;DHT22;20172;47.530;10.256;2022-10-16T04:59:12;13.90;99.90
33881;DHT22;20172;47.530;10.256;2022-10-16T05:01:38;14.00;99.90
33881;DHT22;20172;47.530;10.256;2022-10-16T05:04:03;13.90;99.90
33881;DHT22;20172;47.530;10.256;2022-10-16T05:06:29;14.10;99.90
33881;DHT22;20172;47.530;10.256;2022-10-16T05:08:55;14.10;99.90
33881;DHT22;20172;47.530;10.256;2022-10-16T05:11:20;14.20;99.90
33881;DHT22;20172;47.530;10.256;2022-10-16T05:13:46;14.20;99.90
33881;DHT22;20172;47.530;10.256;2022-10-16T05:16:11;14.30;99.90
33881;DHT22;20172;47.530;10.256;2022-10-16T05:18:37;14.20;99.90
33881;DHT22;20172;47.530;10.256;2022-10-16T05:21:02;14.10;99.90
33881;DHT22;20172;47.530;10.256;2022-10-16T05:23:28;13.80;99.90
33881;DHT22;20172;47.530;10.256;2022-10-16T05:25:54;13.40;99.90
33881;DHT22;20172;47.530;10.256;2022-10-16T05:28:20;13.20;99.90
33881;DHT22;20172;47.530;10.256;2022-10-16T05:30:46;13.00;99.90
33881;DHT22;20172;47.530;10.256;2022-10-16T05:33:11;13.00;99.90
33881;DHT22;20172;47.530;10.256;2022-10-16T05:35:37;13.10;99.90
33881;DHT22;20172;47.530;10.256;2022-10-16T05:38:02;13.00;99.90
33881;DHT22;20172;47.530;10.256;2022-10-16T05:40:28;13.10;99.90
33881;DHT22;20172;47.530;10.256;2022-10-16T05:42:56;13.50;99.90
33881;DHT22;20172;47.530;10.256;2022-10-16T05:45:22;13.70;99.90
33881;DHT22;20172;47.530;10.256;2022-10-16T05:47:48;13.70;99.90
33881;DHT22;20172;47.530;10.256;2022-10-16T05:50:13;13.50;99.90
33881;DHT22;20172;47.530;10.256;2022-10-16T05:52:39;13.30;99.90
33881;DHT22;20172;47.530;10.256;2022-10-16T05:55:04;13.00;99.90
33881;DHT22;20172;47.530;10.256;2022-10-16T05:57:30;12.90;99.90
33881;DHT22;20172;47.530;10.256;2022-10-16T05:59:55;13.00;99.90
33881;DHT22;20172;47.530;10.256;2022-10-16T06:02:21;13.00;99.90
33881;DHT22;20172;47.530;10.256;2022-10-16T06:04:46;13.30;99.90
33881;DHT22;20172;47.530;10.256;2022-10-16T06:07:12;13.30;99.90
33881;DHT22;20172;47.530;10.256;2022-10-16T06:09:37;13.20;99.90
33881;DHT22;20172;47.530;10.256;2022-10-16T06:12:03;13.40;99.90
33881;DHT22;20172;47.530;10.256;2022-10-16T06:14:29;13.50;99.90
33881;DHT22;20172;47.530;10.256;2022-10-16T06:16:57;13.50;99.90
33881;DHT22;20172;47.530;10.256;2022-10-16T06:19:22;13.50;99.90
33881;DHT22;20172;47.530;10.256;2022-10-16T06:21:48;13.50;99.90
33881;DHT22;20172;47.530;10.256;2022-10-16T06:24:13;13.30;99.90
33881;DHT22;20172;47.530;10.256;2022-10-16T06:26:39;13.10;99.90
33881;DHT22;20172;47.530;10.256;2022-10-16T06:29:04;13.10;99.90
33881;DHT22;20172;47.530;10.256;2022-10-16T06:31:30;13.00;99.90
33881;DHT22;20172;47.530;10.256;2022-10-16T06:33:58;12.90;99.90
33881;DHT22;20172;47.530;10.256;2022-10-16T06:36:24;12.90;99.90
33881;DHT22;20172;47.530;10.256;2022-10-16T06:38:50;12.90;99.90
33881;DHT22;20172;47.530;10.256;2022-10-16T06:41:18;13.00;99.90
33881;DHT22;20172;47.530;10.256;2022-10-16T06:43:43;13.10;99.90
33881;DHT22;20172;47.530;10.256;2022-10-16T06:46:11;13.00;99.90
33881;DHT22;20172;47.530;10.256;2022-10-16T06:48:37;13.00;99.90
33881;DHT22;20172;47.530;10.256;2022-10-16T06:53:34;13.60;99.90
33881;DHT22;20172;47.530;10.256;2022-10-16T06:56:13;13.60;99.90
33881;DHT22;20172;47.530;10.256;2022-10-16T06:58:39;13.40;99.90
33881;DHT22;20172;47.530;10.256;2022-10-16T07:01:08;13.60;99.90
33881;DHT22;20172;47.530;10.256;2022-10-16T07:03:36;13.70;99.90
33881;DHT22;20172;47.530;10.256;2022-10-16T07:06:02;13.50;99.90
33881;DHT22;20172;47.530;10.256;2022-10-16T07:08:35;13.40;99.90
33881;DHT22;20172;47.530;10.256;2022-10-16T07:11:01;13.40;99.90
33881;DHT22;20172;47.530;10.256;2022-10-16T07:13:31;13.50;99.90
33881;DHT22;20172;47.530;10.256;2022-10-16T07:15:58;13.60;99.90
33881;DHT22;20172;47.530;10.256;2022-10-16T07:18:24;13.80;99.90
33881;DHT22;20172;47.530;10.256;2022-10-16T07:21:02;13.70;99.90
33881;DHT22;20172;47.530;10.256;2022-10-16T07:23:31;13.60;99.90
33881;DHT22;20172;47.530;10.256;2022-10-16T07:26:08;13.70;99.90
33881;DHT22;20172;47.530;10.256;2022-10-16T07:29:05;13.80;99.90
33881;DHT22;20172;47.530;10.256;2022-10-16T07:31:30;13.90;99.90
33881;DHT22;20172;47.530;10.256;2022-10-16T07:34:14;14.10;99.90
33881;DHT22;20172;47.530;10.256;2022-10-16T07:36:58;14.40;99.90
33881;DHT22;20172;47.530;10.256;2022-10-16T07:42:36;15.30;99.90
33881;DHT22;20172;47.530;10.256;2022-10-16T07:48:18;15.50;99.90
33881;DHT22;20172;47.530;10.256;2022-10-16T07:50:59;15.10;99.90
33881;DHT22;20172;47.530;10.256;2022-10-16T07:54:03;15.10;99.90
33881;DHT22;20172;47.530;10.256;2022-10-16T07:56:30;15.20;99.90
33881;DHT22;20172;47.530;10.256;2022-10-16T07:58:58;15.30;99.90
33881;DHT22;20172;47.530;10.256;2022-10-16T08:01:24;15.40;99.90
33881;DHT22;20172;47.530;10.256;2022-10-16T08:03:55;15.40;99.90
33881;DHT22;20172;47.530;10.256;2022-10-16T08:06:24;15.80;99.90
33881;DHT22;20172;47.530;10.256;2022-10-16T08:08:50;16.10;99.90
33881;DHT22;20172;47.530;10.256;2022-10-16T08:11:15;16.40;99.90
33881;DHT22;20172;47.530;10.256;2022-10-16T08:13:41;16.70;99.90
33881;DHT22;20172;47.530;10.256;2022-10-16T08:16:06;17.00;99.90
33881;DHT22;20172;47.530;10.256;2022-10-16T08:18:37;17.10;99.90
33881;DHT22;20172;47.530;10.256;2022-10-16T08:21:03;17.30;99.90
33881;DHT22;20172;47.530;10.256;2022-10-16T08:23:29;17.50;99.90
33881;DHT22;20172;47.530;10.256;2022-10-16T08:25:56;18.00;99.90
33881;DHT22;20172;47.530;10.256;2022-10-16T08:28:22;18.50;99.90
33881;DHT22;20172;47.530;10.256;2022-10-16T08:30:48;18.80;99.90
33881;DHT22;20172;47.530;10.256;2022-10-16T08:33:13;19.10;99.90
33881;DHT22;20172;47.530;10.256;2022-10-16T08:35:39;19.20;99.90
33881;DHT22;20172;47.530;10.256;2022-10-16T08:38:05;19.50;99.90
33881;DHT22;20172;47.530;10.256;2022-10-16T08:40:31;20.00;99.90
33881;DHT22;20172;47.530;10.256;2022-10-16T08:43:05;20.40;99.90
33881;DHT22;20172;47.530;10.256;2022-10-16T08:50:45;20.50;99.90
33881;DHT22;20172;47.530;10.256;2022-10-16T08:53:31;19.90;99.90
33881;DHT22;20172;47.530;10.256;2022-10-16T08:56:00;19.50;99.90
33881;DHT22;20172;47.530;10.256;2022-10-16T08:58:27;20.40;99.90
33881;DHT22;20172;47.530;10.256;2022-10-16T09:00:54;21.10;99.90
33881;DHT22;20172;47.530;10.256;2022-10-16T09:04:05;21.00;99.90
33881;DHT22;20172;47.530;10.256;2022-10-16T09:08:43;20.20;99.90
33881;DHT22;20172;47.530;10.256;2022-10-16T09:18:48;20.80;99.90
33881;DHT22;20172;47.530;10.256;2022-10-16T09:21:18;22.50;99.90
33881;DHT22;20172;47.530;10.256;2022-10-16T09:23:46;25.10;99.90
33881;DHT22;20172;47.530;10.256;2022-10-16T09:26:13;30.10;99.90
33881;DHT22;20172;47.530;10.256;2022-10-16T09:28:39;33.60;91.70
33881;DHT22;20172;47.530;10.256;2022-10-16T09:31:05;37.10;70.60
33881;DHT22;20172;47.530;10.256;2022-10-16T09:33:35;38.00;55.80
33881;DHT22;20172;47.530;10.256;2022-10-16T09:36:02;38.20;54.10
33881;DHT22;20172;47.530;10.256;2022-10-16T09:38:29;41.60;49.20
33881;DHT22;20172;47.530;10.256;2022-10-16T09:40:55;40.50;46.50
33881;DHT22;20172;47.530;10.256;2022-10-16T09:45:56;43.50;42.70
33881;DHT22;20172;47.530;10.256;2022-10-16T09:48:22;44.10;39.60
33881;DHT22;20172;47.530;10.256;2022-10-16T09:50:57;45.60;38.20
33881;DHT22;20172;47.530;10.256;2022-10-16T09:53:23;45.60;37.80
33881;DHT22;20172;47.530;10.256;2022-10-16T09:55:52;45.60;36.30
33881;DHT22;20172;47.530;10.256;2022-10-16T09:58:20;46.50;36.70
33881;DHT22;20172;47.530;10.256;2022-10-16T10:00:52;47.50;35.70
33881;DHT22;20172;47.530;10.256;2022-10-16T10:03:55;49.20;33.20
33881;DHT22;20172;47.530;10.256;2022-10-16T10:06:18;49.70;32.90
33881;DHT22;20172;47.530;10.256;2022-10-16T10:08:56;49.40;32.00
33881;DHT22;20172;47.530;10.256;2022-10-16T10:14:52;49.60;31.40
33881;DHT22;20172;47.530;10.256;2022-10-16T10:16:53;49.70;31.50
33881;DHT22;20172;47.530;10.256;2022-10-16T10:19:26;52.00;30.30
33881;DHT22;20172;47.530;10.256;2022-10-16T10:21:52;49.80;29.30
33881;DHT22;20172;47.530;10.256;2022-10-16T10:24:18;47.10;31.20
33881;DHT22;20172;47.530;10.256;2022-10-16T10:29:44;48.50;30.40
33881;DHT22;20172;47.530;10.256;2022-10-16T10:34:40;50.40;29.80
33881;DHT22;20172;47.530;10.256;2022-10-16T10:39:41;51.60;28.90
33881;DHT22;20172;47.530;10.256;2022-10-16T10:42:31;46.70;28.10
33881;DHT22;20172;47.530;10.256;2022-10-16T10:44:57;44.70;30.00
33881;DHT22;20172;47.530;10.256;2022-10-16T10:47:51;46.90;31.00
33881;DHT22;20172;47.530;10.256;2022-10-16T10:58:42;53.60;27.40
33881;DHT22;20172;47.530;10.256;2022-10-16T11:01:14;53.00;28.10
33881;DHT22;20172;47.530;10.256;2022-10-16T11:08:50;52.90;27.30
33881;DHT22;20172;47.530;10.256;2022-10-16T11:11:24;52.60;28.00
33881;DHT22;20172;47.530;10.256;2022-10-16T11:16:59;53.50;27.60
33881;DHT22;20172;47.530;10.256;2022-10-16T11:21:31;51.50;27.20
33881;DHT22;20172;47.530;10.256;2022-10-16T11:24:13;50.90;27.40
33881;DHT22;20172;47.530;10.256;2022-10-16T11:26:41;49.50;28.00
33881;DHT22;20172;47.530;10.256;2022-10-16T11:29:10;49.80;27.80
33881;DHT22;20172;47.530;10.256;2022-10-16T11:31:40;50.20;27.70
33881;DHT22;20172;47.530;10.256;2022-10-16T11:34:17;50.20;27.10
33881;DHT22;20172;47.530;10.256;2022-10-16T11:39:22;49.40;27.40
33881;DHT22;20172;47.530;10.256;2022-10-16T11:47:06;46.30;29.60
33881;DHT22;20172;47.530;10.256;2022-10-16T11:49:34;47.00;29.40
33881;DHT22;20172;47.530;10.256;2022-10-16T11:56:53;47.00;28.90
33881;DHT22;20172;47.530;10.256;2022-10-16T11:59:28;47.10;29.10
33881;DHT22;20172;47.530;10.256;2022-10-16T12:02:40;46.50;29.00
33881;DHT22;20172;47.530;10.256;2022-10-16T12:04:50;45.10;30.30
33881;DHT22;20172;47.530;10.256;2022-10-16T12:07:22;45.50;29.90
33881;DHT22;20172;47.530;10.256;2022-10-16T12:09:50;44.80;30.00
33881;DHT22;20172;47.530;10.256;2022-10-16T12:17:48;43.00;31.70
33881;DHT22;20172;47.530;10.256;2022-10-16T12:22:52;43.00;31.80
33881;DHT22;20172;47.530;10.256;2022-10-16T12:25:24;41.50;33.60
33881;DHT22;20172;47.530;10.256;2022-10-16T12:27:57;42.90;32.20
33881;DHT22;20172;47.530;10.256;2022-10-16T12:30:23;43.50;33.20
33881;DHT22;20172;47.530;10.256;2022-10-16T12:33:03;44.10;31.50
33881;DHT22;20172;47.530;10.256;2022-10-16T12:35:34;44.40;31.50
33881;DHT22;20172;47.530;10.256;2022-10-16T12:38:20;45.00;31.00
33881;DHT22;20172;47.530;10.256;2022-10-16T12:40:54;43.70;32.00
33881;DHT22;20172;47.530;10.256;2022-10-16T12:45:48;44.10;31.00
33881;DHT22;20172;47.530;10.256;2022-10-16T12:48:23;43.60;31.30
33881;DHT22;20172;47.530;10.256;2022-10-16T12:50:49;42.80;30.80
33881;DHT22;20172;47.530;10.256;2022-10-16T12:53:19;42.40;32.60
33881;DHT22;20172;47.530;10.256;2022-10-16T12:55:52;42.00;33.10
33881;DHT22;20172;47.530;10.256;2022-10-16T13:01:04;42.60;32.90
33881;DHT22;20172;47.530;10.256;2022-10-16T13:08:39;42.60;32.60
33881;DHT22;20172;47.530;10.256;2022-10-16T13:19:50;39.30;36.50
33881;DHT22;20172;47.530;10.256;2022-10-16T13:27:04;40.20;35.40
33881;DHT22;20172;47.530;10.256;2022-10-16T13:29:32;39.30;36.10
33881;DHT22;20172;47.530;10.256;2022-10-16T13:32:09;38.20;37.20
33881;DHT22;20172;47.530;10.256;2022-10-16T13:34:41;38.80;35.90
33881;DHT22;20172;47.530;10.256;2022-10-16T13:37:15;39.20;35.20
33881;DHT22;20172;47.530;10.256;2022-10-16T13:39:44;36.60;37.40
33881;DHT22;20172;47.530;10.256;2022-10-16T13:42:11;37.30;37.90
33881;DHT22;20172;47.530;10.256;2022-10-16T13:44:41;37.50;38.60
33881;DHT22;20172;47.530;10.256;2022-10-16T13:47:18;38.30;36.50
33881;DHT22;20172;47.530;10.256;2022-10-16T13:49:44;37.80;36.20
33881;DHT22;20172;47.530;10.256;2022-10-16T13:52:19;36.10;36.80
33881;DHT22;20172;47.530;10.256;2022-10-16T13:54:45;35.30;39.10
33881;DHT22;20172;47.530;10.256;2022-10-16T13:57:13;35.40;39.50
33881;DHT22;20172;47.530;10.256;2022-10-16T13:59:38;36.60;37.60
33881;DHT22;20172;47.530;10.256;2022-10-16T14:02:26;35.20;39.20
33881;DHT22;20172;47.530;10.256;2022-10-16T14:04:50;34.70;41.50
33881;DHT22;20172;47.530;10.256;2022-10-16T14:07:26;35.20;39.80
33881;DHT22;20172;47.530;10.256;2022-10-16T14:09:53;34.70;41.10
33881;DHT22;20172;47.530;10.256;2022-10-16T14:12:22;33.40;42.30
33881;DHT22;20172;47.530;10.256;2022-10-16T14:14:51;33.50;41.90
33881;DHT22;20172;47.530;10.256;2022-10-16T14:19:50;33.10;42.90
33881;DHT22;20172;47.530;10.256;2022-10-16T14:24:47;32.40;44.50
33881;DHT22;20172;47.530;10.256;2022-10-16T14:27:28;32.20;45.80
33881;DHT22;20172;47.530;10.256;2022-10-16T14:32:39;31.70;46.80
33881;DHT22;20172;47.530;10.256;2022-10-16T14:35:21;31.20;47.20
33881;DHT22;20172;47.530;10.256;2022-10-16T14:37:50;31.10;47.80
33881;DHT22;20172;47.530;10.256;2022-10-16T14:40:16;30.80;48.70
33881;DHT22;20172;47.530;10.256;2022-10-16T14:42:42;30.70;47.90
33881;DHT22;20172;47.530;10.256;2022-10-16T14:45:09;30.30;48.50
33881;DHT22;20172;47.530;10.256;2022-10-16T14:47:45;29.90;49.60
33881;DHT22;20172;47.530;10.256;2022-10-16T14:50:13;30.00;49.80
33881;DHT22;20172;47.530;10.256;2022-10-16T14:52:38;29.90;50.50
33881;DHT22;20172;47.530;10.256;2022-10-16T14:55:04;29.80;49.20
33881;DHT22;20172;47.530;10.256;2022-10-16T14:57:30;29.60;49.30
33881;DHT22;20172;47.530;10.256;2022-10-16T14:59:56;29.20;51.30
33881;DHT22;20172;47.530;10.256;2022-10-16T15:04:54;29.10;50.80
33881;DHT22;20172;47.530;10.256;2022-10-16T15:07:19;29.30;49.70
33881;DHT22;20172;47.530;10.256;2022-10-16T15:09:45;28.90;50.40
33881;DHT22;20172;47.530;10.256;2022-10-16T15:12:10;28.60;51.50
33881;DHT22;20172;47.530;10.256;2022-10-16T15:14:39;28.60;50.60
33881;DHT22;20172;47.530;10.256;2022-10-16T15:17:04;28.50;51.00
33881;DHT22;20172;47.530;10.256;2022-10-16T15:19:30;28.40;50.90
33881;DHT22;20172;47.530;10.256;2022-10-16T15:21:56;27.80;52.10
33881;DHT22;20172;47.530;10.256;2022-10-16T15:24:21;27.20;53.20
33881;DHT22;20172;47.530;10.256;2022-10-16T15:26:47;26.80;54.30
33881;DHT22;20172;47.530;10.256;2022-10-16T15:29:12;26.80;53.60
33881;DHT22;20172;47.530;10.256;2022-10-16T15:31:38;26.40;55.30
33881;DHT22;20172;47.530;10.256;2022-10-16T15:34:04;26.40;55.00
33881;DHT22;20172;47.530;10.256;2022-10-16T15:36:35;26.30;54.60
33881;DHT22;20172;47.530;10.256;2022-10-16T15:39:05;26.10;54.70
33881;DHT22;20172;47.530;10.256;2022-10-16T15:41:31;25.70;56.10
33881;DHT22;20172;47.530;10.256;2022-10-16T15:43:56;25.50;57.00
33881;DHT22;20172;47.530;10.256;2022-10-16T15:46:23;25.30;57.80
33881;DHT22;20172;47.530;10.256;2022-10-16T15:48:49;25.30;57.40
33881;DHT22;20172;47.530;10.256;2022-10-16T15:51:15;25.30;58.30
33881;DHT22;20172;47.530;10.256;2022-10-16T15:53:44;25.10;58.90
33881;DHT22;20172;47.530;10.256;2022-10-16T15:56:11;24.80;59.90
33881;DHT22;20172;47.530;10.256;2022-10-16T15:58:37;24.60;61.30
33881;DHT22;20172;47.530;10.256;2022-10-16T16:01:03;24.40;62.60
33881;DHT22;20172;47.530;10.256;2022-10-16T16:03:30;23.90;64.00
33881;DHT22;20172;47.530;10.256;2022-10-16T16:05:55;23.30;65.60
33881;DHT22;20172;47.530;10.256;2022-10-16T16:08:21;22.70;68.10
33881;DHT22;20172;47.530;10.256;2022-10-16T16:10:57;22.30;69.50
33881;DHT22;20172;47.530;10.256;2022-10-16T16:13:22;22.10;70.40
33881;DHT22;20172;47.530;10.256;2022-10-16T16:15:48;21.80;71.50
33881;DHT22;20172;47.530;10.256;2022-10-16T16:18:13;21.70;72.40
33881;DHT22;20172;47.530;10.256;2022-10-16T16:20:40;21.60;72.70
33881;DHT22;20172;47.530;10.256;2022-10-16T16:23:05;21.30;73.60
33881;DHT22;20172;47.530;10.256;2022-10-16T16:25:31;21.20;74.10
33881;DHT22;20172;47.530;10.256;2022-10-16T16:27:56;20.90;76.50
33881;DHT22;20172;47.530;10.256;2022-10-16T16:30:22;20.50;79.00
33881;DHT22;20172;47.530;10.256;2022-10-16T16:32:47;20.10;81.70
33881;DHT22;20172;47.530;10.256;2022-10-16T16:35:13;19.70;84.30
33881;DHT22;20172;47.530;10.256;2022-10-16T16:37:38;19.30;86.80
33881;DHT22;20172;47.530;10.256;2022-10-16T16:40:04;19.20;88.20
33881;DHT22;20172;47.530;10.256;2022-10-16T16:42:29;19.10;90.10
33881;DHT22;20172;47.530;10.256;2022-10-16T16:44:55;19.10;90.50
33881;DHT22;20172;47.530;10.256;2022-10-16T16:47:20;19.20;90.90
33881;DHT22;20172;47.530;10.256;2022-10-16T16:49:46;19.20;91.50
33881;DHT22;20172;47.530;10.256;2022-10-16T16:52:12;19.10;92.10
33881;DHT22;20172;47.530;10.256;2022-10-16T16:54:38;18.90;92.90
33881;DHT22;20172;47.530;10.256;2022-10-16T16:57:03;18.70;93.80
33881;DHT22;20172;47.530;10.256;2022-10-16T16:59:29;18.50;94.90
33881;DHT22;20172;47.530;10.256;2022-10-16T17:01:58;18.30;95.50
33881;DHT22;20172;47.530;10.256;2022-10-16T17:04:24;18.30;96.10
33881;DHT22;20172;47.530;10.256;2022-10-16T17:06:49;18.10;97.20
33881;DHT22;20172;47.530;10.256;2022-10-16T17:09:15;18.00;98.20
33881;DHT22;20172;47.530;10.256;2022-10-16T17:11:40;18.00;99.00
33881;DHT22;20172;47.530;10.256;2022-10-16T17:14:10;17.90;99.70
33881;DHT22;20172;47.530;10.256;2022-10-16T17:16:36;17.90;99.90
33881;DHT22;20172;47.530;10.256;2022-10-16T17:19:10;17.80;99.90
33881;DHT22;20172;47.530;10.256;2022-10-16T17:21:39;17.80;99.90
33881;DHT22;20172;47.530;10.256;2022-10-16T17:24:05;17.80;99.90
33881;DHT22;20172;47.530;10.256;2022-10-16T17:26:31;17.60;99.90
33881;DHT22;20172;47.530;10.256;2022-10-16T17:28:58;17.60;99.90
33881;DHT22;20172;47.530;10.256;2022-10-16T17:31:26;17.50;99.90